AirNav   Air Wisconsin Up To $57,000 Bonus
 
 1599 users online  

09CA Mee Memorial Hospital Heliport
King City, California, USA

GOING TO KING CITY?


FAA INFORMATION EFFECTIVE 05 DECEMBER 2019

Location

FAA Identifier: 09CA
Lat/Long: 36-12-19.8922N 121-07-57.1754W
36-12.331537N 121-07.952923W
36.2055256,-121.1325487
(estimated)
Elevation: 334 ft. / 102 m (estimated)
Variation: 15E (1985)
Time zone: UTC -8 (UTC -7 during Daylight Saving Time)
Zip code: 93930

Heliport Operations

Heliport use: Private use, MEDICAL.
Activation date: 04/1975
Control tower: no
ARTCC: OAKLAND CENTER
FSS: OAKLAND FLIGHT SERVICE STATION
NOTAMs facility: FDC (NOTAM-D service not available)
Attendance: UNATNDD
Wind indicator: yes
Segmented circle: no
Lights: SS-SR

Heliport Communications

WX AWOS-AV: 120.800 (831-386-7456)

Nearby radio navigation aids

VOR radial/distance  VOR name  Freq  Var
ROMr264/(23.0)PRIEST VOR110.0016E
BSRr071/24.7BIG SUR VORTAC114.0016E
PXNr193/35.0PANOCHE VORTAC112.6016E
SNSr123/35.7SALINAS VORTAC117.3017E

 
NDB name  Hdg/Dist  Freq  Var  ID
HUNTER LIGGETT356/14.920915EHGT .... --. -
CHUALAR120/23.826316EUAD ..- .- -..

Heliport Services

Runway Information

Helipad H1

Dimensions: 50 x 50 ft. / 15 x 15 m
50 FT X 50 FT TLOF WITHIN 100 FT X 100 FT FATO.
Surface: asphalt
Runway edge lights: low intensity
Latitude: 36-12.331537N
Longitude: 121-07.952923W
Elevation: 334.0 ft.
Traffic pattern: leftleft

Heliport Ownership and Management from official FAA records

Ownership: Privately-owned
Owner: MEE MEMORIAL HOSPITAL
300 CANAL ST
KING CITY, CA 93930
Phone (831) 385-7129
R. MICHEAL HUTCHINSON, CEO - 831-385-7129
Manager: JIM JOHNSON OPERATIONS MGR
300 CANAL ST
KING CITY, CA 93930
Phone (831) 385-7192

Additional Remarks

FOR CD CTC OAKLAND ARTCC AT 510-745-3380.

Instrument Procedures

There are no published instrument procedures at 09CA.

Some nearby airports with instrument procedures:

KHGT - Tusi Army Heliport (Hunter Liggett) (14 nm S)
KSNS - Salinas Municipal Airport (36 nm NW)
KPRB - Paso Robles Municipal Airport (40 nm SE)
KMRY - Monterey Regional Airport (41 nm NW)
KOAR - Marina Municipal Airport (42 nm NW)
 
Loc | Ops | Rwys | IFR | FBO | Links
Com | Nav | Svcs | Stats | Notes
Area around 09CA (Mee Memorial Hospital Heliport)
 
Road maps at: MapQuest Bing Google
 
Aerial photo
No photo
 
Sectional chart

 
Airport distance calculator
Flying to Mee Memorial Hospital Heliport? Find the distance to fly.

From to 09CA

Sunrise and sunset
Times for 05-Dec-2019
 Local
(UTC-8)
 Zulu
(UTC)
Morning civil twilight06:3314:33
Sunrise07:0215:02
Sunset16:4900:49
Evening civil twilight17:1701:17

Current date and time
Zulu (UTC)  05-Dec-2019 20:45:55
Local (UTC-8)  05-Dec-2019 12:45:55
 
METAR
TAF
KSNS 
36nm NW 
051754Z 0518/0618 15006KT P6SM FEW020 SCT040 BKN200 FM051830 31005KT P6SM FEW030 FEW050 BKN200 FM060000 VRB03KT P6SM FEW050 BKN180 FM061400 12006KT P6SM SCT025 BKN050 BKN200
KPRB 
40nm SE 
051720Z 0518/0618 VRB03KT P6SM BKN050 BKN150 FM052100 17007KT P6SM SCT050 BKN150 FM060300 VRB03KT P6SM BKN150 FM061000 VRB03KT P6SM VCSH BKN025 OVC050
KMRY 
41nm NW 
051750Z 0518/0618 VRB04KT P6SM SCT030 SCT050 BKN250 FM060200 VRB03KT P6SM FEW030 FEW050 BKN250 FM061600 14006KT P6SM SCT020 BKN040 BKN200
NOTAMs
Click for the latest NOTAMs
NOTAMs are issued by the DoD/FAA and will open in a separate window not controlled by AirNav.

 

 
 

Would you like to see your business listed on this page?

 If your business provides an interesting product or service to pilots, flight crews, aircraft, or users of the Mee Memorial Hospital Heliport, you should consider listing it here.  To start the listing process, click on the button below
 
Add a business
 

Other Pages about Mee Memorial Hospital Heliport

Update a link
 
Copyright © AirNav, LLC. All rights reserved. Privacy Policy  Contact